createdAt,value
2023-02-19T00:00:55.271Z,6.00
2023-02-19T00:03:44.167Z,6.00
2023-02-19T00:06:34.265Z,6.00
2023-02-19T00:09:21.949Z,6.00
2023-02-19T00:12:09.831Z,6.00
2023-02-19T00:14:58.678Z,6.00
2023-02-19T00:17:46.044Z,6.00
2023-02-19T00:20:33.451Z,6.00
2023-02-19T00:23:21.104Z,6.00
2023-02-19T00:26:18.198Z,6.10
2023-02-19T00:29:08.409Z,6.10
2023-02-19T00:31:57.504Z,6.00
2023-02-19T00:34:45.103Z,6.00
2023-02-19T00:37:33.056Z,6.00
2023-02-19T00:40:20.949Z,6.00
2023-02-19T00:43:08.570Z,6.10
2023-02-19T00:45:56.001Z,6.00
2023-02-19T00:48:44.830Z,6.10
2023-02-19T00:51:35.460Z,6.00
2023-02-19T00:54:24.172Z,6.10
2023-02-19T00:57:11.672Z,6.00
2023-02-19T00:59:58.991Z,6.10
2023-02-19T01:02:46.609Z,6.00
2023-02-19T01:05:35.826Z,6.10
2023-02-19T01:08:23.696Z,6.10
2023-02-19T01:11:12.469Z,6.10
2023-02-19T01:14:01.012Z,6.10
2023-02-19T01:16:48.622Z,6.10
2023-02-19T01:19:36.092Z,6.10
2023-02-19T01:22:24.972Z,6.10
2023-02-19T01:25:12.481Z,6.10
2023-02-19T01:27:59.989Z,6.10
2023-02-19T01:30:47.857Z,6.10
2023-02-19T01:33:36.001Z,6.10
2023-02-19T01:36:23.614Z,6.10
2023-02-19T01:39:13.769Z,6.20
2023-02-19T01:42:01.300Z,6.10
2023-02-19T01:45:25.567Z,6.10
2023-02-19T01:48:18.341Z,6.20
2023-02-19T01:51:10.673Z,6.20
2023-02-19T01:54:02.288Z,6.20
2023-02-19T01:56:52.454Z,6.20
2023-02-19T01:59:41.242Z,6.20
2023-02-19T02:02:28.983Z,6.30
2023-02-19T02:05:26.217Z,6.20
2023-02-19T02:08:33.236Z,6.30
2023-02-19T02:11:22.144Z,6.30
2023-02-19T02:14:11.543Z,6.30
2023-02-19T02:17:11.787Z,6.30
2023-02-19T02:20:28.837Z,6.30
2023-02-19T02:23:23.701Z,6.20
2023-02-19T02:26:33.958Z,6.20
2023-02-19T02:30:10.252Z,6.30
2023-02-19T02:33:07.961Z,6.30
2023-02-19T02:36:00.478Z,6.30
2023-02-19T02:38:50.598Z,6.30
2023-02-19T02:41:44.743Z,6.20
2023-02-19T02:44:35.898Z,6.20
2023-02-19T02:47:37.346Z,6.20
2023-02-19T02:50:31.778Z,6.20
2023-02-19T02:53:41.609Z,6.20
2023-02-19T02:56:31.820Z,6.20
2023-02-19T02:59:23.316Z,6.20
2023-02-19T03:02:15.008Z,6.20
2023-02-19T03:05:25.216Z,6.20
2023-02-19T03:08:17.808Z,6.20
2023-02-19T03:11:22.884Z,6.20
2023-02-19T03:14:33.162Z,6.20
2023-02-19T03:17:41.017Z,6.20
2023-02-19T03:20:29.274Z,6.30
2023-02-19T03:23:21.747Z,6.20
2023-02-19T03:26:09.542Z,6.20
2023-02-19T03:29:27.105Z,6.20
2023-02-19T03:32:28.604Z,6.30
2023-02-19T03:35:22.184Z,6.30
2023-02-19T03:38:13.365Z,6.30
2023-02-19T03:41:12.180Z,6.30
2023-02-19T03:44:09.173Z,6.40
2023-02-19T03:47:03.644Z,6.40
2023-02-19T03:50:00.017Z,6.40
2023-02-19T03:52:59.541Z,6.30
2023-02-19T03:55:55.349Z,6.30
2023-02-19T03:58:53.215Z,6.30
2023-02-19T04:01:44.614Z,6.30
2023-02-19T04:04:36.185Z,6.30
2023-02-19T04:07:26.741Z,6.30
2023-02-19T04:10:15.408Z,6.30
2023-02-19T04:13:11.860Z,6.30
2023-02-19T04:16:07.927Z,6.30
2023-02-19T04:18:58.488Z,6.30
2023-02-19T04:21:47.716Z,6.20
2023-02-19T04:24:40.876Z,6.30
2023-02-19T04:27:28.525Z,6.30
2023-02-19T04:30:17.677Z,6.20
2023-02-19T04:33:06.781Z,6.30
2023-02-19T04:35:54.293Z,6.30
2023-02-19T04:38:41.834Z,6.30
2023-02-19T04:41:29.362Z,6.20
2023-02-19T04:44:16.926Z,6.20
2023-02-19T04:47:04.617Z,6.20
2023-02-19T04:49:53.539Z,6.20
2023-02-19T04:52:40.809Z,6.30
2023-02-19T04:55:28.541Z,6.30
2023-02-19T04:58:15.917Z,6.30
2023-02-19T05:01:03.556Z,6.30
2023-02-19T05:03:51.086Z,6.30
2023-02-19T05:06:39.938Z,6.30
2023-02-19T05:09:27.405Z,6.30
2023-02-19T05:12:15.090Z,6.30
2023-02-19T05:15:02.875Z,6.20
2023-02-19T05:17:50.606Z,6.30
2023-02-19T05:20:38.873Z,6.30
2023-02-19T05:23:28.684Z,6.30
2023-02-19T05:26:18.184Z,6.30
2023-02-19T05:29:05.797Z,6.20
2023-02-19T05:31:53.246Z,6.20
2023-02-19T05:34:40.681Z,6.20
2023-02-19T05:37:28.134Z,6.20
2023-02-19T05:40:17.198Z,6.20
2023-02-19T05:43:05.046Z,6.20
2023-02-19T05:45:52.668Z,6.20
2023-02-19T05:48:40.357Z,6.20
2023-02-19T05:51:28.772Z,6.20
2023-02-19T05:54:16.398Z,6.20
2023-02-19T05:57:05.324Z,6.20
2023-02-19T05:59:54.831Z,6.20
2023-02-19T06:02:42.448Z,6.20
2023-02-19T06:05:30.203Z,6.20
2023-02-19T06:08:17.749Z,6.20
2023-02-19T06:11:05.478Z,6.20
2023-02-19T06:13:54.298Z,6.20
2023-02-19T06:16:42.379Z,6.10
2023-02-19T06:19:29.830Z,6.10
2023-02-19T06:22:17.906Z,6.00
2023-02-19T06:25:07.965Z,6.00
2023-02-19T06:27:55.361Z,5.90
2023-02-19T06:30:44.269Z,5.80
2023-02-19T06:33:32.187Z,5.70
2023-02-19T06:36:21.993Z,5.60
2023-02-19T06:39:10.877Z,5.60
2023-02-19T06:41:59.006Z,5.50
2023-02-19T06:44:46.574Z,5.40
2023-02-19T06:47:35.558Z,5.40
2023-02-19T06:50:22.945Z,5.30
2023-02-19T06:53:11.750Z,5.20
2023-02-19T06:56:00.302Z,5.20
2023-02-19T06:58:47.989Z,5.10
2023-02-19T07:01:37.020Z,5.10
2023-02-19T07:04:26.167Z,5.10
2023-02-19T07:07:13.824Z,5.00
2023-02-19T07:10:02.073Z,5.00
2023-02-19T07:12:49.622Z,5.00
2023-02-19T07:15:37.200Z,4.90
2023-02-19T07:18:25.168Z,5.00
2023-02-19T07:21:16.123Z,4.90
2023-02-19T07:24:03.524Z,4.90
2023-02-19T07:26:50.828Z,4.90
2023-02-19T07:29:38.466Z,4.90
2023-02-19T07:32:26.160Z,4.80
2023-02-19T07:35:13.699Z,4.80
2023-02-19T07:38:02.704Z,4.80
2023-02-19T07:40:54.274Z,4.70
2023-02-19T07:43:42.251Z,4.40
2023-02-19T07:46:30.182Z,4.30
2023-02-19T07:49:17.984Z,4.20
2023-02-19T07:52:06.085Z,4.10
2023-02-19T07:54:54.747Z,3.90
2023-02-19T07:57:42.260Z,3.90
2023-02-19T08:00:29.740Z,3.90
2023-02-19T08:03:17.616Z,3.80
2023-02-19T08:06:05.804Z,3.70
2023-02-19T08:08:54.369Z,3.70
2023-02-19T08:12:02.189Z,3.70
2023-02-19T08:14:50.140Z,3.70
2023-02-19T08:17:37.390Z,3.60
2023-02-19T08:20:24.710Z,3.60
2023-02-19T08:23:13.038Z,3.60
2023-02-19T08:26:02.224Z,3.50
2023-02-19T08:28:51.725Z,3.60
2023-02-19T08:31:39.433Z,3.50
2023-02-19T08:34:27.056Z,3.50
2023-02-19T08:37:14.670Z,3.50
2023-02-19T08:40:02.029Z,3.50
2023-02-19T08:42:49.740Z,3.60
2023-02-19T08:45:41.416Z,3.60
2023-02-19T08:48:29.057Z,3.70
2023-02-19T08:51:16.434Z,3.70
2023-02-19T08:54:04.745Z,3.80
2023-02-19T08:56:52.603Z,3.80
2023-02-19T08:59:40.287Z,3.80
2023-02-19T09:02:29.302Z,3.80
2023-02-19T09:05:17.200Z,3.80
2023-02-19T09:08:04.820Z,3.80
2023-02-19T09:10:59.606Z,3.90
2023-02-19T09:13:47.159Z,4.00
2023-02-19T09:16:34.574Z,4.10
2023-02-19T09:19:23.472Z,4.30
2023-02-19T09:22:11.028Z,4.50
2023-02-19T09:24:58.453Z,4.60
2023-02-19T09:27:46.265Z,4.70
2023-02-19T09:30:34.023Z,4.90
2023-02-19T09:33:21.544Z,5.10
2023-02-19T09:36:11.116Z,5.20
2023-02-19T09:39:00.468Z,5.30
2023-02-19T09:41:50.773Z,5.30
2023-02-19T09:44:40.650Z,5.30
2023-02-19T09:47:30.800Z,5.30
2023-02-19T09:50:22.203Z,5.30
2023-02-19T09:53:16.868Z,5.40
2023-02-19T09:56:05.662Z,5.40
2023-02-19T09:58:55.486Z,5.60
2023-02-19T10:01:44.535Z,5.70
2023-02-19T10:04:32.794Z,5.90
2023-02-19T10:07:23.034Z,6.00
2023-02-19T10:10:26.966Z,6.10
2023-02-19T10:13:21.084Z,6.10
2023-02-19T10:16:15.751Z,6.20
2023-02-19T10:19:04.863Z,6.20
2023-02-19T10:21:52.464Z,6.30
2023-02-19T10:24:42.649Z,6.30
2023-02-19T10:27:32.912Z,6.20
2023-02-19T10:30:23.292Z,6.10
2023-02-19T10:33:12.531Z,6.10
2023-02-19T10:36:01.887Z,5.80
2023-02-19T10:38:49.732Z,5.70
2023-02-19T10:41:44.324Z,5.80
2023-02-19T10:44:39.675Z,5.90
2023-02-19T10:47:29.659Z,6.00
2023-02-19T10:50:31.036Z,6.00
2023-02-19T10:53:24.378Z,6.20
2023-02-19T10:56:15.346Z,6.20
2023-02-19T10:59:22.052Z,6.20
2023-02-19T11:02:18.522Z,6.30
2023-02-19T11:05:17.276Z,6.10
2023-02-19T11:08:05.200Z,6.00
2023-02-19T11:10:53.023Z,5.70
2023-02-19T11:13:43.641Z,5.70
2023-02-19T11:16:42.112Z,5.70
2023-02-19T11:19:36.523Z,5.70
2023-02-19T11:22:35.281Z,5.70
2023-02-19T11:25:25.817Z,5.50
2023-02-19T11:28:25.004Z,5.40
2023-02-19T11:31:24.313Z,5.40
2023-02-19T11:34:29.979Z,5.50
2023-02-19T11:37:20.926Z,5.60
2023-02-19T11:40:13.781Z,5.80
2023-02-19T11:43:14.095Z,6.10
2023-02-19T11:46:09.598Z,6.30
2023-02-19T11:49:08.420Z,6.60
2023-02-19T11:52:23.984Z,6.90
2023-02-19T11:55:22.559Z,7.20
2023-02-19T11:58:34.247Z,7.30
2023-02-19T12:01:30.687Z,7.10
2023-02-19T12:04:50.996Z,6.80
2023-02-19T12:08:09.698Z,6.40
2023-02-19T12:11:12.529Z,5.90
2023-02-19T12:14:18.958Z,5.70
2023-02-19T12:17:11.284Z,5.50
2023-02-19T12:20:13.248Z,5.40
2023-02-19T12:23:19.061Z,5.30
2023-02-19T12:26:16.159Z,5.50
2023-02-19T12:29:13.018Z,5.60
2023-02-19T12:32:28.375Z,5.90
2023-02-19T12:35:37.014Z,6.10
2023-02-19T12:38:33.493Z,6.00
2023-02-19T12:41:43.857Z,6.00
2023-02-19T12:44:40.818Z,6.00
2023-02-19T12:47:30.561Z,6.00
2023-02-19T12:50:22.794Z,6.20
2023-02-19T12:53:18.376Z,6.30
2023-02-19T12:56:13.825Z,6.50
2023-02-19T12:59:05.295Z,6.40
2023-02-19T13:01:59.813Z,6.30
2023-02-19T13:04:55.742Z,6.20
2023-02-19T13:07:52.534Z,6.10
2023-02-19T13:10:45.349Z,6.20
2023-02-19T13:13:42.036Z,6.20
2023-02-19T13:16:33.578Z,6.20
2023-02-19T13:19:20.973Z,6.30
2023-02-19T13:22:37.772Z,6.30
2023-02-19T13:25:32.912Z,6.30
2023-02-19T13:28:39.802Z,6.20
2023-02-19T13:31:46.704Z,6.20
2023-02-19T13:34:48.076Z,6.20
2023-02-19T13:37:36.550Z,6.10
2023-02-19T13:40:31.297Z,6.00
2023-02-19T13:43:26.640Z,6.10
2023-02-19T13:46:18.182Z,6.30
2023-02-19T13:49:42.327Z,6.60
2023-02-19T13:52:40.611Z,6.80
2023-02-19T13:55:53.216Z,6.90
2023-02-19T13:59:13.834Z,7.00
2023-02-19T14:02:34.349Z,6.90
2023-02-19T14:06:00.135Z,6.90
2023-02-19T14:08:57.148Z,7.10
2023-02-19T14:12:04.004Z,7.30
2023-02-19T14:14:52.878Z,7.30
2023-02-19T14:17:43.078Z,7.10
2023-02-19T14:20:46.255Z,7.10
2023-02-19T14:23:33.897Z,7.00
2023-02-19T14:26:22.199Z,7.10
2023-02-19T14:29:12.128Z,7.20
2023-02-19T14:32:01.179Z,7.30
2023-02-19T14:34:48.994Z,7.50
2023-02-19T14:37:38.352Z,7.60
2023-02-19T14:40:29.875Z,7.90
2023-02-19T14:43:20.647Z,8.00
2023-02-19T14:46:16.722Z,8.20
2023-02-19T14:49:13.381Z,8.30
2023-02-19T14:52:04.735Z,7.90
2023-02-19T14:54:57.801Z,7.50
2023-02-19T14:57:48.158Z,7.10
2023-02-19T15:00:38.383Z,6.70
2023-02-19T15:03:29.483Z,6.30
2023-02-19T15:06:20.223Z,5.90
2023-02-19T15:09:08.395Z,5.80
2023-02-19T15:11:58.149Z,5.70
2023-02-19T15:14:46.664Z,5.60
2023-02-19T15:17:37.313Z,5.50
2023-02-19T15:20:27.247Z,5.50
2023-02-19T15:23:23.464Z,5.40
2023-02-19T15:26:22.259Z,5.40
2023-02-19T15:29:14.272Z,5.30
2023-02-19T15:32:02.459Z,5.20
2023-02-19T15:34:58.163Z,5.00
2023-02-19T15:37:45.610Z,4.90
2023-02-19T15:40:33.491Z,4.90
2023-02-19T15:43:25.547Z,4.90
2023-02-19T15:46:19.919Z,4.80
2023-02-19T15:49:14.504Z,4.70
2023-02-19T15:52:07.154Z,4.70
2023-02-19T15:54:59.768Z,4.80
2023-02-19T15:57:53.311Z,4.80
2023-02-19T16:00:47.169Z,4.80
2023-02-19T16:03:37.245Z,4.80
2023-02-19T16:06:26.090Z,4.80
2023-02-19T16:09:21.689Z,4.80
2023-02-19T16:12:21.766Z,4.70
2023-02-19T16:15:16.475Z,4.70
2023-02-19T16:18:03.907Z,4.60
2023-02-19T16:20:52.689Z,4.60
2023-02-19T16:23:44.021Z,4.50
2023-02-19T16:26:40.228Z,4.40
2023-02-19T16:29:30.122Z,4.20
2023-02-19T16:32:19.106Z,4.10
2023-02-19T16:35:22.587Z,4.10
2023-02-19T16:38:15.283Z,4.00
2023-02-19T16:41:16.425Z,3.90
2023-02-19T16:44:31.707Z,3.80
2023-02-19T16:47:30.101Z,3.80
2023-02-19T16:50:21.138Z,3.70
2023-02-19T16:53:09.509Z,3.70
2023-02-19T16:55:58.535Z,3.60
2023-02-19T16:58:46.261Z,3.60
2023-02-19T17:01:34.068Z,3.50
2023-02-19T17:04:21.835Z,3.50
2023-02-19T17:07:14.324Z,3.40
2023-02-19T17:10:01.937Z,3.30
2023-02-19T17:12:50.874Z,3.30
2023-02-19T17:15:38.683Z,3.20
2023-02-19T17:18:26.218Z,3.20
2023-02-19T17:21:18.279Z,3.20
2023-02-19T17:24:06.429Z,3.20
2023-02-19T17:26:54.203Z,3.20
2023-02-19T17:29:43.046Z,3.20
2023-02-19T17:32:30.753Z,3.20
2023-02-19T17:35:18.298Z,3.20
2023-02-19T17:38:09.667Z,3.30
2023-02-19T17:40:57.413Z,3.40
2023-02-19T17:43:45.767Z,3.50
2023-02-19T17:46:35.071Z,3.50
2023-02-19T17:49:22.745Z,3.50
2023-02-19T17:52:10.562Z,3.50
2023-02-19T17:54:57.798Z,3.40
2023-02-19T17:57:45.736Z,3.40
2023-02-19T18:00:34.316Z,3.30
2023-02-19T18:03:23.070Z,3.20
2023-02-19T18:06:10.570Z,3.20
2023-02-19T18:08:58.236Z,3.20
2023-02-19T18:11:46.948Z,3.20
2023-02-19T18:14:34.338Z,3.30
2023-02-19T18:17:21.955Z,3.30
2023-02-19T18:20:14.771Z,3.40
2023-02-19T18:23:02.525Z,3.40
2023-02-19T18:25:50.454Z,3.50
2023-02-19T18:28:38.775Z,3.40
2023-02-19T18:31:26.222Z,3.40
2023-02-19T18:34:18.387Z,3.40
2023-02-19T18:37:07.255Z,3.40
2023-02-19T18:39:55.012Z,3.40
2023-02-19T18:42:42.896Z,3.40
2023-02-19T18:45:35.303Z,3.40
2023-02-19T18:48:23.013Z,3.30
2023-02-19T18:51:11.701Z,3.20
2023-02-19T18:54:02.172Z,3.10
2023-02-19T18:56:49.906Z,3.00
2023-02-19T18:59:37.627Z,2.90
2023-02-19T19:02:25.191Z,2.80
2023-02-19T19:05:13.496Z,2.70
2023-02-19T19:08:01.942Z,2.60
2023-02-19T19:10:51.159Z,2.50
2023-02-19T19:13:38.880Z,2.50
2023-02-19T19:16:27.274Z,2.40
2023-02-19T19:19:15.959Z,2.30
2023-02-19T19:22:03.373Z,2.30
2023-02-19T19:24:50.867Z,2.30
2023-02-19T19:27:39.981Z,2.20
2023-02-19T19:30:27.924Z,2.10
2023-02-19T19:33:17.693Z,2.00
2023-02-19T19:36:06.250Z,2.00
2023-02-19T19:38:53.818Z,1.90
2023-02-19T19:41:41.598Z,1.90
2023-02-19T19:44:30.396Z,1.80
2023-02-19T19:47:18.082Z,1.80
2023-02-19T19:50:05.566Z,1.80
2023-02-19T19:52:53.115Z,1.70
2023-02-19T19:55:40.676Z,1.60
2023-02-19T19:58:28.229Z,1.60
2023-02-19T20:01:21.067Z,1.50
2023-02-19T20:04:08.744Z,1.50
2023-02-19T20:06:57.619Z,1.40
2023-02-19T20:09:48.784Z,1.40
2023-02-19T20:12:36.368Z,1.30
2023-02-19T20:15:24.611Z,1.30
2023-02-19T20:18:13.594Z,1.30
2023-02-19T20:21:01.065Z,1.40
2023-02-19T20:23:48.467Z,1.30
2023-02-19T20:26:36.126Z,1.40
2023-02-19T20:29:25.006Z,1.30
2023-02-19T20:32:12.976Z,1.30
2023-02-19T20:35:02.214Z,1.30
2023-02-19T20:37:49.712Z,1.30
2023-02-19T20:40:37.178Z,1.40
2023-02-19T20:43:24.531Z,1.40
2023-02-19T20:46:12.656Z,1.40
2023-02-19T20:49:00.833Z,1.30
2023-02-19T20:51:52.003Z,1.20
2023-02-19T20:54:39.504Z,1.20
2023-02-19T20:57:26.992Z,1.10
2023-02-19T21:00:17.105Z,1.10
2023-02-19T21:03:05.036Z,1.10
2023-02-19T21:05:52.745Z,1.10
2023-02-19T21:08:41.451Z,1.10
2023-02-19T21:11:29.059Z,1.10
2023-02-19T21:14:16.796Z,1.10
2023-02-19T21:17:04.251Z,1.20
2023-02-19T21:19:51.778Z,1.30
2023-02-19T21:22:39.503Z,1.30
2023-02-19T21:25:28.423Z,1.40
2023-02-19T21:28:15.789Z,1.40
2023-02-19T21:31:03.369Z,1.40
2023-02-19T21:33:51.062Z,1.40
2023-02-19T21:36:39.026Z,1.40
2023-02-19T21:39:27.572Z,1.40
2023-02-19T21:42:16.660Z,1.40
2023-02-19T21:45:04.776Z,1.30
2023-02-19T21:47:52.675Z,1.30
2023-02-19T21:50:40.349Z,1.20
2023-02-19T21:53:27.815Z,1.20
2023-02-19T21:56:23.461Z,1.10
2023-02-19T21:59:12.610Z,1.10
2023-02-19T22:01:59.991Z,1.00
2023-02-19T22:04:47.595Z,1.00
2023-02-19T22:07:35.052Z,1.00
2023-02-19T22:10:22.969Z,1.00
2023-02-19T22:13:10.383Z,1.00
2023-02-19T22:15:59.454Z,1.00
2023-02-19T22:18:48.295Z,1.00
2023-02-19T22:21:36.015Z,1.10
2023-02-19T22:24:24.184Z,1.00
2023-02-19T22:27:12.066Z,1.10
2023-02-19T22:29:59.503Z,1.00
2023-02-19T22:32:48.338Z,1.00
2023-02-19T22:35:36.082Z,1.00
2023-02-19T22:38:23.734Z,1.00
2023-02-19T22:41:11.426Z,1.00
2023-02-19T22:43:59.913Z,1.00
2023-02-19T22:46:49.498Z,1.00
2023-02-19T22:49:42.058Z,0.90
2023-02-19T22:52:30.613Z,0.90
2023-02-19T22:55:18.690Z,0.80
2023-02-19T22:58:06.263Z,0.80
2023-02-19T23:00:53.767Z,0.80
2023-02-19T23:03:47.407Z,0.80
2023-02-19T23:06:36.752Z,0.80
2023-02-19T23:09:26.566Z,0.80
2023-02-19T23:12:14.046Z,0.70
2023-02-19T23:15:01.438Z,0.60
2023-02-19T23:17:48.959Z,0.60
2023-02-19T23:20:36.625Z,0.60
2023-02-19T23:23:25.659Z,0.50
2023-02-19T23:26:14.764Z,0.60
2023-02-19T23:29:02.870Z,0.60
2023-02-19T23:31:54.056Z,0.60
2023-02-19T23:34:41.651Z,0.60
2023-02-19T23:37:29.106Z,0.60
2023-02-19T23:40:18.986Z,0.70
2023-02-19T23:43:06.551Z,0.70
2023-02-19T23:45:54.395Z,0.70
2023-02-19T23:48:41.976Z,0.70
2023-02-19T23:51:29.455Z,0.60
2023-02-19T23:54:17.203Z,0.60
2023-02-19T23:57:06.464Z,0.60
2023-02-19T23:59:54.279Z,0.50
